sensor_id;sensor_type;location;lat;lon;timestamp;P1;durP1;ratioP1;P2;durP2;ratioP2
57599;SDS011;43426;43.594;24.334;2023-08-08T00:03:53;4.70;;;3.10;;
57599;SDS011;43426;43.594;24.334;2023-08-08T00:08:43;2.85;;;2.47;;
57599;SDS011;43426;43.594;24.334;2023-08-08T00:11:09;2.58;;;2.38;;
57599;SDS011;43426;43.594;24.334;2023-08-08T00:15:59;4.40;;;2.80;;
57599;SDS011;43426;43.594;24.334;2023-08-08T00:20:50;3.03;;;2.80;;
57599;SDS011;43426;43.594;24.334;2023-08-08T00:25:41;3.45;;;2.80;;
57599;SDS011;43426;43.594;24.334;2023-08-08T00:30:32;4.47;;;2.88;;
57599;SDS011;43426;43.594;24.334;2023-08-08T00:35:23;3.13;;;2.88;;
57599;SDS011;43426;43.594;24.334;2023-08-08T00:40:14;2.70;;;2.50;;
57599;SDS011;43426;43.594;24.334;2023-08-08T00:45:05;2.58;;;2.38;;
57599;SDS011;43426;43.594;24.334;2023-08-08T00:47:31;2.75;;;2.55;;
57599;SDS011;43426;43.594;24.334;2023-08-08T00:49:58;2.75;;;2.55;;
57599;SDS011;43426;43.594;24.334;2023-08-08T00:54:50;4.07;;;2.90;;
57599;SDS011;43426;43.594;24.334;2023-08-08T00:57:16;3.58;;;2.47;;
57599;SDS011;43426;43.594;24.334;2023-08-08T01:02:07;3.38;;;2.65;;
57599;SDS011;43426;43.594;24.334;2023-08-08T01:12:41;3.28;;;2.60;;
57599;SDS011;43426;43.594;24.334;2023-08-08T01:15:10;2.78;;;2.58;;
57599;SDS011;43426;43.594;24.334;2023-08-08T01:17:38;2.20;;;2.10;;
57599;SDS011;43426;43.594;24.334;2023-08-08T01:20:04;2.75;;;2.20;;
57599;SDS011;43426;43.594;24.334;2023-08-08T01:22:55;2.90;;;2.30;;
57599;SDS011;43426;43.594;24.334;2023-08-08T01:25:37;2.67;;;2.47;;
57599;SDS011;43426;43.594;24.334;2023-08-08T01:28:05;5.38;;;2.50;;
57599;SDS011;43426;43.594;24.334;2023-08-08T01:32:56;2.70;;;2.50;;
57599;SDS011;43426;43.594;24.334;2023-08-08T01:37:57;2.33;;;2.22;;
57599;SDS011;43426;43.594;24.334;2023-08-08T01:40:29;2.35;;;2.25;;
57599;SDS011;43426;43.594;24.334;2023-08-08T01:42:56;2.60;;;2.40;;
57599;SDS011;43426;43.594;24.334;2023-08-08T01:45:23;2.30;;;2.20;;
57599;SDS011;43426;43.594;24.334;2023-08-08T01:47:50;4.97;;;2.95;;
57599;SDS011;43426;43.594;24.334;2023-08-08T01:50:16;2.05;;;1.95;;
57599;SDS011;43426;43.594;24.334;2023-08-08T01:55:07;5.80;;;2.53;;
57599;SDS011;43426;43.594;24.334;2023-08-08T01:59:59;3.30;;;2.33;;
57599;SDS011;43426;43.594;24.334;2023-08-08T02:02:24;15.65;;;3.15;;
57599;SDS011;43426;43.594;24.334;2023-08-08T02:07:15;2.60;;;2.50;;
57599;SDS011;43426;43.594;24.334;2023-08-08T02:09:41;3.10;;;2.90;;
57599;SDS011;43426;43.594;24.334;2023-08-08T02:14:32;7.47;;;2.92;;
57599;SDS011;43426;43.594;24.334;2023-08-08T02:16:57;2.83;;;2.63;;
57599;SDS011;43426;43.594;24.334;2023-08-08T02:21:48;3.55;;;3.25;;
57599;SDS011;43426;43.594;24.334;2023-08-08T02:26:39;3.63;;;3.42;;
57599;SDS011;43426;43.594;24.334;2023-08-08T02:31:30;3.90;;;3.53;;
57599;SDS011;43426;43.594;24.334;2023-08-08T02:36:20;3.33;;;3.13;;
57599;SDS011;43426;43.594;24.334;2023-08-08T02:41:11;3.58;;;3.28;;
57599;SDS011;43426;43.594;24.334;2023-08-08T02:46:02;3.88;;;3.47;;
57599;SDS011;43426;43.594;24.334;2023-08-08T02:50:54;4.05;;;3.75;;
57599;SDS011;43426;43.594;24.334;2023-08-08T02:53:19;3.60;;;3.30;;
57599;SDS011;43426;43.594;24.334;2023-08-08T02:58:10;4.20;;;3.90;;
57599;SDS011;43426;43.594;24.334;2023-08-08T03:03:00;4.43;;;4.13;;
57599;SDS011;43426;43.594;24.334;2023-08-08T03:05:27;4.40;;;4.10;;
57599;SDS011;43426;43.594;24.334;2023-08-08T03:07:53;3.95;;;3.65;;
57599;SDS011;43426;43.594;24.334;2023-08-08T03:12:44;3.80;;;3.50;;
57599;SDS011;43426;43.594;24.334;2023-08-08T03:17:35;4.40;;;3.97;;
57599;SDS011;43426;43.594;24.334;2023-08-08T03:20:01;4.40;;;3.95;;
57599;SDS011;43426;43.594;24.334;2023-08-08T03:22:28;4.40;;;4.10;;
57599;SDS011;43426;43.594;24.334;2023-08-08T03:27:19;4.28;;;3.97;;
57599;SDS011;43426;43.594;24.334;2023-08-08T03:32:09;4.30;;;4.00;;
57599;SDS011;43426;43.594;24.334;2023-08-08T03:37:00;3.60;;;3.35;;
57599;SDS011;43426;43.594;24.334;2023-08-08T03:41:51;3.40;;;3.20;;
57599;SDS011;43426;43.594;24.334;2023-08-08T03:46:42;4.78;;;3.80;;
57599;SDS011;43426;43.594;24.334;2023-08-08T03:49:08;3.60;;;3.40;;
57599;SDS011;43426;43.594;24.334;2023-08-08T03:53:59;3.55;;;3.35;;
57599;SDS011;43426;43.594;24.334;2023-08-08T03:56:24;3.80;;;3.50;;
57599;SDS011;43426;43.594;24.334;2023-08-08T04:01:15;3.85;;;3.53;;
57599;SDS011;43426;43.594;24.334;2023-08-08T04:06:06;4.20;;;3.90;;
57599;SDS011;43426;43.594;24.334;2023-08-08T04:10:57;4.30;;;4.00;;
57599;SDS011;43426;43.594;24.334;2023-08-08T04:13:23;3.90;;;3.60;;
57599;SDS011;43426;43.594;24.334;2023-08-08T04:18:16;3.75;;;3.38;;
57599;SDS011;43426;43.594;24.334;2023-08-08T04:20:42;3.17;;;2.97;;
57599;SDS011;43426;43.594;24.334;2023-08-08T04:25:33;3.40;;;3.10;;
57599;SDS011;43426;43.594;24.334;2023-08-08T04:30:23;3.80;;;3.60;;
57599;SDS011;43426;43.594;24.334;2023-08-08T04:35:14;4.00;;;3.70;;
57599;SDS011;43426;43.594;24.334;2023-08-08T04:37:40;3.92;;;3.60;;
57599;SDS011;43426;43.594;24.334;2023-08-08T04:40:07;3.85;;;3.55;;
57599;SDS011;43426;43.594;24.334;2023-08-08T04:42:33;3.85;;;3.55;;
57599;SDS011;43426;43.594;24.334;2023-08-08T04:44:59;3.85;;;3.65;;
57599;SDS011;43426;43.594;24.334;2023-08-08T04:49:49;4.38;;;4.07;;
57599;SDS011;43426;43.594;24.334;2023-08-08T04:54:40;4.40;;;3.47;;
57599;SDS011;43426;43.594;24.334;2023-08-08T04:57:06;4.40;;;4.00;;
57599;SDS011;43426;43.594;24.334;2023-08-08T05:01:57;4.60;;;4.30;;
57599;SDS011;43426;43.594;24.334;2023-08-08T05:06:47;6.60;;;3.75;;
57599;SDS011;43426;43.594;24.334;2023-08-08T05:11:38;4.05;;;3.60;;
57599;SDS011;43426;43.594;24.334;2023-08-08T05:16:29;3.60;;;3.38;;
57599;SDS011;43426;43.594;24.334;2023-08-08T05:21:21;3.53;;;3.33;;
57599;SDS011;43426;43.594;24.334;2023-08-08T05:23:47;3.70;;;3.50;;
57599;SDS011;43426;43.594;24.334;2023-08-08T05:28:38;3.55;;;3.25;;
57599;SDS011;43426;43.594;24.334;2023-08-08T05:33:29;3.33;;;3.08;;
57599;SDS011;43426;43.594;24.334;2023-08-08T05:38:20;3.55;;;3.35;;
57599;SDS011;43426;43.594;24.334;2023-08-08T05:43:10;4.22;;;3.92;;
57599;SDS011;43426;43.594;24.334;2023-08-08T05:45:41;3.80;;;3.50;;
57599;SDS011;43426;43.594;24.334;2023-08-08T05:50:34;4.22;;;3.50;;
57599;SDS011;43426;43.594;24.334;2023-08-08T05:53:02;3.20;;;3.10;;
57599;SDS011;43426;43.594;24.334;2023-08-08T05:57:53;3.95;;;3.65;;
57599;SDS011;43426;43.594;24.334;2023-08-08T06:00:19;5.93;;;3.35;;
57599;SDS011;43426;43.594;24.334;2023-08-08T06:05:10;3.42;;;3.22;;
57599;SDS011;43426;43.594;24.334;2023-08-08T06:07:36;3.47;;;3.17;;
57599;SDS011;43426;43.594;24.334;2023-08-08T06:12:28;2.65;;;2.45;;
57599;SDS011;43426;43.594;24.334;2023-08-08T06:17:18;2.90;;;2.70;;
57599;SDS011;43426;43.594;24.334;2023-08-08T06:22:10;1.60;;;1.50;;
57599;SDS011;43426;43.594;24.334;2023-08-08T06:27:01;1.40;;;1.30;;
57599;SDS011;43426;43.594;24.334;2023-08-08T06:31:52;1.20;;;1.10;;
57599;SDS011;43426;43.594;24.334;2023-08-08T06:36:43;3.05;;;1.40;;
57599;SDS011;43426;43.594;24.334;2023-08-08T06:39:08;1.90;;;1.30;;
57599;SDS011;43426;43.594;24.334;2023-08-08T06:41:34;1.42;;;1.00;;
57599;SDS011;43426;43.594;24.334;2023-08-08T06:43:59;1.02;;;1.00;;
57599;SDS011;43426;43.594;24.334;2023-08-08T06:46:25;1.10;;;0.90;;
57599;SDS011;43426;43.594;24.334;2023-08-08T06:48:50;3.13;;;1.00;;
57599;SDS011;43426;43.594;24.334;2023-08-08T06:51:18;1.00;;;1.00;;
57599;SDS011;43426;43.594;24.334;2023-08-08T06:56:09;2.85;;;1.00;;
57599;SDS011;43426;43.594;24.334;2023-08-08T06:58:34;0.88;;;0.88;;
57599;SDS011;43426;43.594;24.334;2023-08-08T07:00:59;0.90;;;0.77;;
57599;SDS011;43426;43.594;24.334;2023-08-08T07:03:25;0.80;;;0.80;;
57599;SDS011;43426;43.594;24.334;2023-08-08T07:05:50;1.17;;;0.70;;
57599;SDS011;43426;43.594;24.334;2023-08-08T07:08:17;2.15;;;0.68;;
57599;SDS011;43426;43.594;24.334;2023-08-08T07:10:44;1.98;;;0.70;;
57599;SDS011;43426;43.594;24.334;2023-08-08T07:13:09;0.68;;;0.68;;
57599;SDS011;43426;43.594;24.334;2023-08-08T07:15:34;0.65;;;0.65;;
57599;SDS011;43426;43.594;24.334;2023-08-08T07:18:00;0.70;;;0.65;;
57599;SDS011;43426;43.594;24.334;2023-08-08T07:20:25;0.80;;;0.70;;
57599;SDS011;43426;43.594;24.334;2023-08-08T07:22:51;0.70;;;0.70;;
57599;SDS011;43426;43.594;24.334;2023-08-08T07:25:16;1.10;;;0.88;;
57599;SDS011;43426;43.594;24.334;2023-08-08T07:27:44;0.57;;;0.57;;
57599;SDS011;43426;43.594;24.334;2023-08-08T07:30:10;0.70;;;0.70;;
57599;SDS011;43426;43.594;24.334;2023-08-08T07:32:36;1.90;;;0.73;;
57599;SDS011;43426;43.594;24.334;2023-08-08T07:35:02;1.65;;;0.60;;
57599;SDS011;43426;43.594;24.334;2023-08-08T07:37:30;0.98;;;0.60;;
57599;SDS011;43426;43.594;24.334;2023-08-08T07:39:57;0.70;;;0.70;;
57599;SDS011;43426;43.594;24.334;2023-08-08T07:42:22;1.40;;;0.90;;
57599;SDS011;43426;43.594;24.334;2023-08-08T07:44:48;0.60;;;0.60;;
57599;SDS011;43426;43.594;24.334;2023-08-08T07:47:13;2.42;;;0.70;;
57599;SDS011;43426;43.594;24.334;2023-08-08T07:49:39;2.40;;;0.60;;
57599;SDS011;43426;43.594;24.334;2023-08-08T07:52:04;0.77;;;0.77;;
57599;SDS011;43426;43.594;24.334;2023-08-08T07:54:30;1.30;;;0.50;;
57599;SDS011;43426;43.594;24.334;2023-08-08T07:56:55;0.52;;;0.52;;
57599;SDS011;43426;43.594;24.334;2023-08-08T07:59:21;1.42;;;0.60;;
57599;SDS011;43426;43.594;24.334;2023-08-08T08:01:46;0.40;;;0.40;;
57599;SDS011;43426;43.594;24.334;2023-08-08T08:04:12;0.50;;;0.50;;
57599;SDS011;43426;43.594;24.334;2023-08-08T08:06:37;1.10;;;0.60;;
57599;SDS011;43426;43.594;24.334;2023-08-08T08:09:03;0.82;;;0.50;;
57599;SDS011;43426;43.594;24.334;2023-08-08T08:11:28;3.97;;;0.50;;
57599;SDS011;43426;43.594;24.334;2023-08-08T08:13:54;0.57;;;0.47;;
57599;SDS011;43426;43.594;24.334;2023-08-08T08:16:19;0.57;;;0.40;;
57599;SDS011;43426;43.594;24.334;2023-08-08T08:18:45;0.60;;;0.50;;
57599;SDS011;43426;43.594;24.334;2023-08-08T08:21:12;0.50;;;0.50;;
57599;SDS011;43426;43.594;24.334;2023-08-08T08:23:39;0.43;;;0.30;;
57599;SDS011;43426;43.594;24.334;2023-08-08T08:26:05;5.45;;;0.50;;
57599;SDS011;43426;43.594;24.334;2023-08-08T08:28:31;1.00;;;0.50;;
57599;SDS011;43426;43.594;24.334;2023-08-08T08:30:56;0.70;;;0.40;;
57599;SDS011;43426;43.594;24.334;2023-08-08T08:33:22;0.52;;;0.43;;
57599;SDS011;43426;43.594;24.334;2023-08-08T08:35:47;0.60;;;0.60;;
57599;SDS011;43426;43.594;24.334;2023-08-08T08:38:13;0.65;;;0.50;;
57599;SDS011;43426;43.594;24.334;2023-08-08T08:40:39;0.50;;;0.45;;
57599;SDS011;43426;43.594;24.334;2023-08-08T08:43:06;0.63;;;0.60;;
57599;SDS011;43426;43.594;24.334;2023-08-08T08:45:34;1.58;;;0.60;;
57599;SDS011;43426;43.594;24.334;2023-08-08T08:48:03;1.42;;;0.38;;
57599;SDS011;43426;43.594;24.334;2023-08-08T08:50:28;1.25;;;0.90;;
57599;SDS011;43426;43.594;24.334;2023-08-08T08:52:57;1.75;;;0.55;;
57599;SDS011;43426;43.594;24.334;2023-08-08T08:55:25;2.13;;;0.45;;
57599;SDS011;43426;43.594;24.334;2023-08-08T08:57:51;0.40;;;0.40;;
57599;SDS011;43426;43.594;24.334;2023-08-08T09:00:18;0.75;;;0.47;;
57599;SDS011;43426;43.594;24.334;2023-08-08T09:02:43;0.40;;;0.40;;
57599;SDS011;43426;43.594;24.334;2023-08-08T09:05:10;8.60;;;0.73;;
57599;SDS011;43426;43.594;24.334;2023-08-08T09:07:36;0.20;;;0.20;;
57599;SDS011;43426;43.594;24.334;2023-08-08T09:10:02;0.75;;;0.40;;
57599;SDS011;43426;43.594;24.334;2023-08-08T09:12:28;4.57;;;0.40;;
57599;SDS011;43426;43.594;24.334;2023-08-08T09:14:56;0.65;;;0.40;;
57599;SDS011;43426;43.594;24.334;2023-08-08T09:17:26;0.30;;;0.30;;
57599;SDS011;43426;43.594;24.334;2023-08-08T09:19:55;1.50;;;0.38;;
57599;SDS011;43426;43.594;24.334;2023-08-08T09:22:21;1.77;;;0.47;;
57599;SDS011;43426;43.594;24.334;2023-08-08T09:24:46;0.55;;;0.52;;
57599;SDS011;43426;43.594;24.334;2023-08-08T09:27:12;0.30;;;0.30;;
57599;SDS011;43426;43.594;24.334;2023-08-08T09:29:39;0.50;;;0.50;;
57599;SDS011;43426;43.594;24.334;2023-08-08T09:32:08;0.30;;;0.30;;
57599;SDS011;43426;43.594;24.334;2023-08-08T09:34:34;0.75;;;0.40;;
57599;SDS011;43426;43.594;24.334;2023-08-08T09:37:01;0.40;;;0.40;;
57599;SDS011;43426;43.594;24.334;2023-08-08T09:39:28;0.30;;;0.30;;
57599;SDS011;43426;43.594;24.334;2023-08-08T09:41:55;0.30;;;0.30;;
57599;SDS011;43426;43.594;24.334;2023-08-08T09:44:25;0.73;;;0.40;;
57599;SDS011;43426;43.594;24.334;2023-08-08T09:46:51;1.13;;;0.40;;
57599;SDS011;43426;43.594;24.334;2023-08-08T09:49:17;1.75;;;0.40;;
57599;SDS011;43426;43.594;24.334;2023-08-08T09:51:43;0.80;;;0.57;;
57599;SDS011;43426;43.594;24.334;2023-08-08T09:54:09;0.43;;;0.30;;
57599;SDS011;43426;43.594;24.334;2023-08-08T09:56:35;0.30;;;0.30;;
57599;SDS011;43426;43.594;24.334;2023-08-08T09:59:01;0.30;;;0.30;;
57599;SDS011;43426;43.594;24.334;2023-08-08T10:01:30;0.55;;;0.30;;
57599;SDS011;43426;43.594;24.334;2023-08-08T10:03:56;0.70;;;0.50;;
57599;SDS011;43426;43.594;24.334;2023-08-08T10:06:23;0.30;;;0.30;;
57599;SDS011;43426;43.594;24.334;2023-08-08T10:08:48;0.30;;;0.30;;
57599;SDS011;43426;43.594;24.334;2023-08-08T10:11:15;0.30;;;0.30;;
57599;SDS011;43426;43.594;24.334;2023-08-08T10:13:48;0.43;;;0.40;;
57599;SDS011;43426;43.594;24.334;2023-08-08T10:16:15;0.65;;;0.20;;
57599;SDS011;43426;43.594;24.334;2023-08-08T10:18:42;0.63;;;0.32;;
57599;SDS011;43426;43.594;24.334;2023-08-08T10:21:07;0.30;;;0.20;;
57599;SDS011;43426;43.594;24.334;2023-08-08T10:23:37;0.57;;;0.43;;
57599;SDS011;43426;43.594;24.334;2023-08-08T10:26:04;0.68;;;0.30;;
57599;SDS011;43426;43.594;24.334;2023-08-08T10:28:31;0.30;;;0.30;;
57599;SDS011;43426;43.594;24.334;2023-08-08T10:30:58;1.90;;;0.30;;
57599;SDS011;43426;43.594;24.334;2023-08-08T10:33:47;0.40;;;0.38;;
57599;SDS011;43426;43.594;24.334;2023-08-08T10:36:12;0.37;;;0.37;;
57599;SDS011;43426;43.594;24.334;2023-08-08T10:41:12;0.32;;;0.32;;
57599;SDS011;43426;43.594;24.334;2023-08-08T10:43:46;1.20;;;0.20;;
57599;SDS011;43426;43.594;24.334;2023-08-08T10:46:22;0.30;;;0.28;;
57599;SDS011;43426;43.594;24.334;2023-08-08T10:48:59;0.35;;;0.35;;
57599;SDS011;43426;43.594;24.334;2023-08-08T10:51:33;0.30;;;0.20;;
57599;SDS011;43426;43.594;24.334;2023-08-08T10:54:12;0.50;;;0.40;;
57599;SDS011;43426;43.594;24.334;2023-08-08T10:56:40;1.10;;;0.20;;
57599;SDS011;43426;43.594;24.334;2023-08-08T10:59:16;1.52;;;0.45;;
57599;SDS011;43426;43.594;24.334;2023-08-08T11:01:47;0.30;;;0.30;;
57599;SDS011;43426;43.594;24.334;2023-08-08T11:04:14;0.52;;;0.40;;
57599;SDS011;43426;43.594;24.334;2023-08-08T11:06:43;0.40;;;0.40;;
57599;SDS011;43426;43.594;24.334;2023-08-08T11:09:09;0.28;;;0.28;;
57599;SDS011;43426;43.594;24.334;2023-08-08T11:11:41;0.52;;;0.30;;
57599;SDS011;43426;43.594;24.334;2023-08-08T11:14:21;0.73;;;0.30;;
57599;SDS011;43426;43.594;24.334;2023-08-08T11:16:48;0.30;;;0.30;;
57599;SDS011;43426;43.594;24.334;2023-08-08T11:19:15;0.70;;;0.30;;
57599;SDS011;43426;43.594;24.334;2023-08-08T11:21:44;0.68;;;0.55;;
57599;SDS011;43426;43.594;24.334;2023-08-08T11:24:11;2.72;;;0.30;;
57599;SDS011;43426;43.594;24.334;2023-08-08T11:26:37;3.30;;;0.28;;
57599;SDS011;43426;43.594;24.334;2023-08-08T11:29:05;0.30;;;0.30;;
57599;SDS011;43426;43.594;24.334;2023-08-08T11:31:36;2.25;;;0.30;;
57599;SDS011;43426;43.594;24.334;2023-08-08T11:34:02;0.28;;;0.28;;
57599;SDS011;43426;43.594;24.334;2023-08-08T11:36:30;0.30;;;0.30;;
57599;SDS011;43426;43.594;24.334;2023-08-08T11:39:02;0.73;;;0.30;;
57599;SDS011;43426;43.594;24.334;2023-08-08T11:44:04;0.20;;;0.20;;
57599;SDS011;43426;43.594;24.334;2023-08-08T11:46:30;0.22;;;0.20;;
57599;SDS011;43426;43.594;24.334;2023-08-08T11:49:02;1.05;;;0.20;;
57599;SDS011;43426;43.594;24.334;2023-08-08T11:51:29;0.52;;;0.38;;
57599;SDS011;43426;43.594;24.334;2023-08-08T11:53:54;0.13;;;0.13;;
57599;SDS011;43426;43.594;24.334;2023-08-08T11:56:20;0.20;;;0.20;;
57599;SDS011;43426;43.594;24.334;2023-08-08T11:58:49;0.20;;;0.20;;
57599;SDS011;43426;43.594;24.334;2023-08-08T12:01:22;0.30;;;0.30;;
57599;SDS011;43426;43.594;24.334;2023-08-08T12:03:48;0.20;;;0.20;;
57599;SDS011;43426;43.594;24.334;2023-08-08T12:06:16;0.10;;;0.10;;
57599;SDS011;43426;43.594;24.334;2023-08-08T12:08:43;1.10;;;0.20;;
57599;SDS011;43426;43.594;24.334;2023-08-08T12:11:12;0.20;;;0.20;;
57599;SDS011;43426;43.594;24.334;2023-08-08T12:13:39;0.20;;;0.10;;
57599;SDS011;43426;43.594;24.334;2023-08-08T12:16:06;1.58;;;0.25;;
57599;SDS011;43426;43.594;24.334;2023-08-08T12:18:34;0.40;;;0.30;;
57599;SDS011;43426;43.594;24.334;2023-08-08T12:21:03;0.30;;;0.30;;
57599;SDS011;43426;43.594;24.334;2023-08-08T12:23:32;0.30;;;0.20;;
57599;SDS011;43426;43.594;24.334;2023-08-08T12:25:58;2.95;;;0.40;;
57599;SDS011;43426;43.594;24.334;2023-08-08T12:28:25;0.63;;;0.40;;
57599;SDS011;43426;43.594;24.334;2023-08-08T12:30:50;0.40;;;0.20;;
57599;SDS011;43426;43.594;24.334;2023-08-08T12:33:16;0.30;;;0.30;;
57599;SDS011;43426;43.594;24.334;2023-08-08T12:35:41;0.20;;;0.20;;
57599;SDS011;43426;43.594;24.334;2023-08-08T12:38:07;0.38;;;0.30;;
57599;SDS011;43426;43.594;24.334;2023-08-08T12:40:32;1.67;;;0.30;;
57599;SDS011;43426;43.594;24.334;2023-08-08T12:42:59;0.40;;;0.20;;
57599;SDS011;43426;43.594;24.334;2023-08-08T12:45:24;1.40;;;0.50;;
57599;SDS011;43426;43.594;24.334;2023-08-08T12:47:50;0.30;;;0.30;;
57599;SDS011;43426;43.594;24.334;2023-08-08T12:50:19;0.22;;;0.22;;
57599;SDS011;43426;43.594;24.334;2023-08-08T12:52:45;0.40;;;0.40;;
57599;SDS011;43426;43.594;24.334;2023-08-08T12:55:10;0.17;;;0.17;;
57599;SDS011;43426;43.594;24.334;2023-08-08T12:57:37;0.30;;;0.30;;
57599;SDS011;43426;43.594;24.334;2023-08-08T13:00:02;0.70;;;0.30;;
57599;SDS011;43426;43.594;24.334;2023-08-08T13:02:28;0.88;;;0.30;;
57599;SDS011;43426;43.594;24.334;2023-08-08T13:04:54;0.20;;;0.20;;
57599;SDS011;43426;43.594;24.334;2023-08-08T13:07:19;0.20;;;0.20;;
57599;SDS011;43426;43.594;24.334;2023-08-08T13:09:45;2.10;;;0.40;;
57599;SDS011;43426;43.594;24.334;2023-08-08T13:12:10;0.20;;;0.20;;
57599;SDS011;43426;43.594;24.334;2023-08-08T13:14:35;0.20;;;0.20;;
57599;SDS011;43426;43.594;24.334;2023-08-08T13:17:01;0.20;;;0.20;;
57599;SDS011;43426;43.594;24.334;2023-08-08T13:19:27;1.02;;;0.30;;
57599;SDS011;43426;43.594;24.334;2023-08-08T13:21:52;0.30;;;0.30;;
57599;SDS011;43426;43.594;24.334;2023-08-08T13:24:18;1.48;;;0.30;;
57599;SDS011;43426;43.594;24.334;2023-08-08T13:26:45;0.20;;;0.20;;
57599;SDS011;43426;43.594;24.334;2023-08-08T13:29:11;2.08;;;0.30;;
57599;SDS011;43426;43.594;24.334;2023-08-08T13:31:37;2.83;;;0.47;;
57599;SDS011;43426;43.594;24.334;2023-08-08T13:34:02;0.20;;;0.20;;
57599;SDS011;43426;43.594;24.334;2023-08-08T13:36:28;0.20;;;0.20;;
57599;SDS011;43426;43.594;24.334;2023-08-08T13:38:53;0.38;;;0.30;;
57599;SDS011;43426;43.594;24.334;2023-08-08T13:41:18;0.30;;;0.30;;
57599;SDS011;43426;43.594;24.334;2023-08-08T13:43:44;0.43;;;0.30;;
57599;SDS011;43426;43.594;24.334;2023-08-08T13:46:09;0.20;;;0.20;;
57599;SDS011;43426;43.594;24.334;2023-08-08T13:48:35;0.63;;;0.22;;
57599;SDS011;43426;43.594;24.334;2023-08-08T13:51:02;0.20;;;0.20;;
57599;SDS011;43426;43.594;24.334;2023-08-08T13:53:28;0.20;;;0.20;;
57599;SDS011;43426;43.594;24.334;2023-08-08T13:55:53;0.30;;;0.20;;
57599;SDS011;43426;43.594;24.334;2023-08-08T13:58:19;0.28;;;0.20;;
57599;SDS011;43426;43.594;24.334;2023-08-08T14:00:47;0.45;;;0.35;;
57599;SDS011;43426;43.594;24.334;2023-08-08T14:03:13;0.63;;;0.50;;
57599;SDS011;43426;43.594;24.334;2023-08-08T14:05:39;0.30;;;0.30;;
57599;SDS011;43426;43.594;24.334;2023-08-08T14:08:04;1.73;;;0.30;;
57599;SDS011;43426;43.594;24.334;2023-08-08T14:10:30;2.97;;;0.25;;
57599;SDS011;43426;43.594;24.334;2023-08-08T14:12:55;0.30;;;0.22;;
57599;SDS011;43426;43.594;24.334;2023-08-08T14:15:21;0.38;;;0.30;;
57599;SDS011;43426;43.594;24.334;2023-08-08T14:17:46;0.45;;;0.30;;
57599;SDS011;43426;43.594;24.334;2023-08-08T14:20:12;0.30;;;0.30;;
57599;SDS011;43426;43.594;24.334;2023-08-08T14:22:37;0.35;;;0.20;;
57599;SDS011;43426;43.594;24.334;2023-08-08T14:25:03;0.20;;;0.20;;
57599;SDS011;43426;43.594;24.334;2023-08-08T14:27:31;0.20;;;0.20;;
57599;SDS011;43426;43.594;24.334;2023-08-08T14:29:57;0.30;;;0.30;;
57599;SDS011;43426;43.594;24.334;2023-08-08T14:32:22;0.40;;;0.30;;
57599;SDS011;43426;43.594;24.334;2023-08-08T14:34:48;0.20;;;0.20;;
57599;SDS011;43426;43.594;24.334;2023-08-08T14:37:13;0.43;;;0.20;;
57599;SDS011;43426;43.594;24.334;2023-08-08T14:39:39;0.20;;;0.20;;
57599;SDS011;43426;43.594;24.334;2023-08-08T14:42:04;0.98;;;0.30;;
57599;SDS011;43426;43.594;24.334;2023-08-08T14:44:30;1.85;;;0.20;;
57599;SDS011;43426;43.594;24.334;2023-08-08T14:46:55;0.43;;;0.20;;
57599;SDS011;43426;43.594;24.334;2023-08-08T14:49:21;0.30;;;0.30;;
57599;SDS011;43426;43.594;24.334;2023-08-08T14:51:47;4.50;;;0.47;;
57599;SDS011;43426;43.594;24.334;2023-08-08T14:54:13;0.20;;;0.20;;
57599;SDS011;43426;43.594;24.334;2023-08-08T14:56:38;0.20;;;0.20;;
57599;SDS011;43426;43.594;24.334;2023-08-08T14:59:04;0.45;;;0.40;;
57599;SDS011;43426;43.594;24.334;2023-08-08T15:01:29;1.42;;;0.95;;
57599;SDS011;43426;43.594;24.334;2023-08-08T15:03:55;1.05;;;0.20;;
57599;SDS011;43426;43.594;24.334;2023-08-08T15:06:22;1.20;;;0.20;;
57599;SDS011;43426;43.594;24.334;2023-08-08T15:08:48;0.30;;;0.30;;
57599;SDS011;43426;43.594;24.334;2023-08-08T15:11:15;0.82;;;0.40;;
57599;SDS011;43426;43.594;24.334;2023-08-08T15:13:41;0.30;;;0.30;;
57599;SDS011;43426;43.594;24.334;2023-08-08T15:16:06;0.20;;;0.20;;
57599;SDS011;43426;43.594;24.334;2023-08-08T15:18:32;3.40;;;0.20;;
57599;SDS011;43426;43.594;24.334;2023-08-08T15:20:57;0.28;;;0.28;;
57599;SDS011;43426;43.594;24.334;2023-08-08T15:23:23;1.67;;;0.30;;
57599;SDS011;43426;43.594;24.334;2023-08-08T15:25:48;0.45;;;0.30;;
57599;SDS011;43426;43.594;24.334;2023-08-08T15:28:14;0.17;;;0.17;;
57599;SDS011;43426;43.594;24.334;2023-08-08T15:30:39;0.30;;;0.30;;
57599;SDS011;43426;43.594;24.334;2023-08-08T15:33:05;0.75;;;0.43;;
57599;SDS011;43426;43.594;24.334;2023-08-08T15:35:30;0.32;;;0.20;;
57599;SDS011;43426;43.594;24.334;2023-08-08T15:37:55;1.27;;;1.00;;
57599;SDS011;43426;43.594;24.334;2023-08-08T15:40:23;1.85;;;1.40;;
57599;SDS011;43426;43.594;24.334;2023-08-08T15:42:50;0.90;;;0.90;;
57599;SDS011;43426;43.594;24.334;2023-08-08T15:45:15;0.35;;;0.20;;
57599;SDS011;43426;43.594;24.334;2023-08-08T15:47:41;0.25;;;0.25;;
57599;SDS011;43426;43.594;24.334;2023-08-08T15:50:07;2.17;;;0.80;;
57599;SDS011;43426;43.594;24.334;2023-08-08T15:52:34;0.80;;;0.22;;
57599;SDS011;43426;43.594;24.334;2023-08-08T15:55:01;0.50;;;0.28;;
57599;SDS011;43426;43.594;24.334;2023-08-08T15:57:26;0.43;;;0.25;;
57599;SDS011;43426;43.594;24.334;2023-08-08T15:59:52;4.20;;;0.20;;
57599;SDS011;43426;43.594;24.334;2023-08-08T16:02:17;0.30;;;0.30;;
57599;SDS011;43426;43.594;24.334;2023-08-08T16:04:43;0.52;;;0.30;;
57599;SDS011;43426;43.594;24.334;2023-08-08T16:07:08;0.77;;;0.40;;
57599;SDS011;43426;43.594;24.334;2023-08-08T16:09:34;0.63;;;0.28;;
57599;SDS011;43426;43.594;24.334;2023-08-08T16:11:59;0.40;;;0.30;;
57599;SDS011;43426;43.594;24.334;2023-08-08T16:14:25;0.20;;;0.20;;
57599;SDS011;43426;43.594;24.334;2023-08-08T16:16:51;0.32;;;0.20;;
57599;SDS011;43426;43.594;24.334;2023-08-08T16:19:16;0.30;;;0.30;;
57599;SDS011;43426;43.594;24.334;2023-08-08T16:21:42;0.40;;;0.20;;
57599;SDS011;43426;43.594;24.334;2023-08-08T16:24:07;0.22;;;0.22;;
57599;SDS011;43426;43.594;24.334;2023-08-08T16:26:33;0.40;;;0.30;;
57599;SDS011;43426;43.594;24.334;2023-08-08T16:28:59;0.40;;;0.20;;
57599;SDS011;43426;43.594;24.334;2023-08-08T16:31:24;0.30;;;0.30;;
57599;SDS011;43426;43.594;24.334;2023-08-08T16:33:50;0.32;;;0.30;;
57599;SDS011;43426;43.594;24.334;2023-08-08T16:36:15;0.20;;;0.20;;
57599;SDS011;43426;43.594;24.334;2023-08-08T16:38:41;1.17;;;0.35;;
57599;SDS011;43426;43.594;24.334;2023-08-08T16:41:07;0.25;;;0.25;;
57599;SDS011;43426;43.594;24.334;2023-08-08T16:43:37;0.20;;;0.20;;
57599;SDS011;43426;43.594;24.334;2023-08-08T16:46:03;0.50;;;0.30;;
57599;SDS011;43426;43.594;24.334;2023-08-08T16:48:32;0.30;;;0.30;;
57599;SDS011;43426;43.594;24.334;2023-08-08T16:50:58;1.30;;;0.38;;
57599;SDS011;43426;43.594;24.334;2023-08-08T16:53:24;0.40;;;0.20;;
57599;SDS011;43426;43.594;24.334;2023-08-08T16:55:49;0.63;;;0.30;;
57599;SDS011;43426;43.594;24.334;2023-08-08T16:58:15;0.28;;;0.28;;
57599;SDS011;43426;43.594;24.334;2023-08-08T17:00:41;0.30;;;0.30;;
57599;SDS011;43426;43.594;24.334;2023-08-08T17:03:06;0.70;;;0.38;;
57599;SDS011;43426;43.594;24.334;2023-08-08T17:05:33;0.40;;;0.40;;
57599;SDS011;43426;43.594;24.334;2023-08-08T17:07:58;2.55;;;0.20;;
57599;SDS011;43426;43.594;24.334;2023-08-08T17:10:24;0.50;;;0.20;;
57599;SDS011;43426;43.594;24.334;2023-08-08T17:12:50;0.22;;;0.22;;